Time;durP1;ratioP1;P1;durP2;ratioP2;P2;SDS_P1;SDS_P2;PMS_P1;PMS_P2;Temp;Humidity;BMP_temperature;BMP_pressure;BME280_temperature;BME280_humidity;BME280_pressure;Samples;Min_cycle;Max_cycle;Signal;HPM_P1;HPM_P2
2021/04/03 00:01:30;;;;;;;;;;;;;;;2.64;78.81;99440.33;1762966;80;20449;-70
2021/04/03 00:03:58;;;;;;;;;;;;;;;2.62;78.78;99432.24;1779745;80;20387;-70
2021/04/03 00:06:25;;;;;;;;;;;;;;;2.59;78.78;99441.06;1767838;80;21539;-71
2021/04/03 00:08:52;;;;;;;;;;;;;;;2.57;78.76;99444.24;1758410;80;20213;-71
2021/04/03 00:11:21;;;;;;;;;;;;;;;2.55;78.71;99443.50;1774872;80;22560;-71
2021/04/03 00:13:48;;;;;;;;;;;;;;;2.49;78.74;99444.70;1755912;80;20500;-71
2021/04/03 00:16:16;;;;;;;;;;;;;;;2.49;78.75;99449.92;1749812;81;20223;-71
2021/04/03 00:18:43;;;;;;;;;;;;;;;2.48;78.72;99445.64;1745339;81;20553;-71
2021/04/03 00:21:11;;;;;;;;;;;;;;;2.45;78.72;99445.83;1758583;80;20294;-72
2021/04/03 00:23:39;;;;;;;;;;;;;;;2.43;78.72;99451.61;1752147;81;22758;-72
2021/04/03 00:26:06;;;;;;;;;;;;;;;2.40;78.73;99443.13;1753838;81;20396;-71
2021/04/03 00:28:35;;;;;;;;;;;;;;;2.40;78.74;99447.03;1768203;80;20212;-71
2021/04/03 00:31:02;;;;;;;;;;;;;;;2.38;78.76;99449.73;1760063;81;20323;-71
2021/04/03 00:33:30;;;;;;;;;;;;;;;2.36;78.76;99449.46;1753518;80;20214;-70
2021/04/03 00:35:58;;;;;;;;;;;;;;;2.32;78.79;99448.82;1749608;81;22076;-70
2021/04/03 00:38:25;;;;;;;;;;;;;;;2.30;78.84;99451.95;1770913;81;20788;-70
2021/04/03 00:40:52;;;;;;;;;;;;;;;2.28;78.86;99448.15;1755120;80;20221;-72
2021/04/03 00:43:24;;;;;;;;;;;;;;;2.29;78.88;99454.20;1771244;81;22685;-71
2021/04/03 00:45:51;;;;;;;;;;;;;;;2.27;78.84;99454.76;1768089;81;20232;-71
2021/04/03 00:48:19;;;;;;;;;;;;;;;2.26;78.82;99461.73;1767061;81;22966;-70
2021/04/03 00:50:49;;;;;;;;;;;;;;;2.25;78.85;99461.37;1756661;81;20814;-71
2021/04/03 00:53:25;;;;;;;;;;;;;;;2.21;78.82;99459.86;1716316;82;20240;-71
2021/04/03 00:55:54;;;;;;;;;;;;;;;2.20;78.82;99462.09;1763706;81;20487;-71
2021/04/03 00:58:23;;;;;;;;;;;;;;;2.17;78.86;99460.14;1751450;81;20216;-70
2021/04/03 01:00:51;;;;;;;;;;;;;;;2.16;78.84;99468.89;1769523;81;22062;-69
2021/04/03 01:03:23;;;;;;;;;;;;;;;2.15;78.84;99459.41;1769773;80;20232;-70
2021/04/03 01:05:51;;;;;;;;;;;;;;;2.13;78.87;99467.31;1771962;80;20246;-71
2021/04/03 01:08:19;;;;;;;;;;;;;;;2.12;78.88;99461.70;1708300;83;20471;-70
2021/04/03 01:10:51;;;;;;;;;;;;;;;2.12;78.87;99460.41;1764896;81;20274;-70
2021/04/03 01:13:40;;;;;;;;;;;;;;;2.11;78.87;99471.75;1769402;79;20527;-71
2021/04/03 01:16:33;;;;;;;;;;;;;;;2.08;78.86;99461.99;1759411;80;20240;-70
2021/04/03 01:19:26;;;;;;;;;;;;;;;2.06;78.86;99469.91;1773953;80;20216;-71
2021/04/03 01:21:58;;;;;;;;;;;;;;;2.04;78.81;99467.02;1758756;80;20318;-71
2021/04/03 01:24:45;;;;;;;;;;;;;;;1.99;78.78;99479.83;1771589;80;20219;-71
2021/04/03 01:27:15;;;;;;;;;;;;;;;1.97;78.76;99483.46;1764246;80;21835;-71
2021/04/03 01:30:08;;;;;;;;;;;;;;;1.93;78.69;99481.95;1784940;80;20576;-71
2021/04/03 01:32:44;;;;;;;;;;;;;;;1.90;78.74;99484.27;1749823;80;20255;-72
2021/04/03 01:35:28;;;;;;;;;;;;;;;1.89;78.82;99484.36;1756804;80;20462;-72
2021/04/03 01:37:59;;;;;;;;;;;;;;;1.90;78.86;99483.43;1761512;80;20230;-70
2021/04/03 01:40:27;;;;;;;;;;;;;;;1.92;78.92;99480.27;1761979;80;21983;-70
2021/04/03 01:43:04;;;;;;;;;;;;;;;1.94;78.92;99481.05;1766263;80;20351;-70
2021/04/03 01:45:32;;;;;;;;;;;;;;;1.95;78.86;99480.95;1763564;80;20214;-70
2021/04/03 01:48:00;;;;;;;;;;;;;;;1.94;78.81;99483.65;1758723;80;20913;-71
2021/04/03 01:50:28;;;;;;;;;;;;;;;1.92;78.87;99481.58;1770028;80;20219;-71
2021/04/03 01:52:57;;;;;;;;;;;;;;;1.91;78.91;99490.31;1770439;80;21166;-71
2021/04/03 01:55:24;;;;;;;;;;;;;;;1.90;78.90;99485.57;1767402;80;20394;-71
2021/04/03 01:57:51;;;;;;;;;;;;;;;1.89;78.96;99493.48;1741420;82;20210;-71
2021/04/03 02:00:22;;;;;;;;;;;;;;;1.90;79.01;99495.16;1762668;80;20467;-71
2021/04/03 02:02:52;;;;;;;;;;;;;;;1.94;79.07;99496.67;1744079;80;20282;-72
2021/04/03 02:05:22;;;;;;;;;;;;;;;1.94;79.08;99490.16;1767848;80;22076;-71
2021/04/03 02:07:51;;;;;;;;;;;;;;;1.96;79.14;99494.81;1755965;80;20224;-71
2021/04/03 02:10:27;;;;;;;;;;;;;;;2.00;79.21;99490.63;1762298;80;20227;-72
2021/04/03 02:12:59;;;;;;;;;;;;;;;2.03;79.28;99493.97;1749749;80;20505;-73
2021/04/03 02:15:28;;;;;;;;;;;;;;;2.06;79.33;99492.04;1756714;80;20226;-73
2021/04/03 02:17:58;;;;;;;;;;;;;;;2.10;79.33;99490.08;1767995;80;22023;-71
2021/04/03 02:20:26;;;;;;;;;;;;;;;2.14;79.36;99492.44;1731905;82;20590;-72
2021/04/03 02:22:54;;;;;;;;;;;;;;;2.16;79.37;99486.66;1752748;81;20221;-71
2021/04/03 02:25:21;;;;;;;;;;;;;;;2.18;79.33;99488.70;1745989;81;20493;-73
2021/04/03 02:27:49;;;;;;;;;;;;;;;2.20;79.28;99489.45;1761928;81;20210;-71
2021/04/03 02:30:19;;;;;;;;;;;;;;;2.19;79.25;99485.17;1773083;81;22931;-72
2021/04/03 02:32:55;;;;;;;;;;;;;;;2.16;79.14;99489.73;1759168;81;20224;-72
2021/04/03 02:35:24;;;;;;;;;;;;;;;2.12;79.12;99489.05;1755258;81;20330;-72
2021/04/03 02:37:58;;;;;;;;;;;;;;;2.10;79.09;99491.39;1766440;79;20454;-72
2021/04/03 02:40:28;;;;;;;;;;;;;;;2.07;79.08;99491.58;1743516;81;20509;-71
2021/04/03 02:43:26;;;;;;;;;;;;;;;2.06;79.12;99496.41;1739902;81;22059;-71
2021/04/03 02:46:06;;;;;;;;;;;;;;;2.05;79.09;99489.53;1761736;81;21229;-71
2021/04/03 02:48:33;;;;;;;;;;;;;;;2.04;79.08;99491.30;1761480;81;20223;-71
2021/04/03 02:51:02;;;;;;;;;;;;;;;2.04;79.12;99496.50;1760575;80;20454;-69
2021/04/03 02:53:31;;;;;;;;;;;;;;;2.04;79.12;99492.59;1719975;80;20243;-71
2021/04/03 02:56:02;;;;;;;;;;;;;;;2.04;79.12;99489.16;1764237;81;22141;-71
2021/04/03 02:58:33;;;;;;;;;;;;;;;2.04;79.07;99491.77;1766146;80;20302;-71
2021/04/03 03:01:03;;;;;;;;;;;;;;;2.03;79.08;99495.27;1764060;80;20221;-70
2021/04/03 03:03:31;;;;;;;;;;;;;;;2.03;79.07;99487.02;1753650;81;21359;-70
2021/04/03 03:06:01;;;;;;;;;;;;;;;2.03;79.09;99500.48;1718970;80;20223;-70
2021/04/03 03:08:29;;;;;;;;;;;;;;;2.02;79.15;99493.13;1753006;81;22348;-71
2021/04/03 03:10:58;;;;;;;;;;;;;;;2.02;79.25;99495.73;1708885;81;20483;-71
2021/04/03 03:13:26;;;;;;;;;;;;;;;2.04;79.34;99496.50;1770074;80;20478;-71
2021/04/03 03:15:54;;;;;;;;;;;;;;;2.07;79.39;99497.63;1751395;80;20340;-71
2021/04/03 03:18:23;;;;;;;;;;;;;;;2.09;79.37;99502.27;1755912;81;20207;-71
2021/04/03 03:20:50;;;;;;;;;;;;;;;2.11;79.39;99499.57;1761096;81;22070;-70
2021/04/03 03:23:17;;;;;;;;;;;;;;;2.11;79.34;99495.20;1757218;81;20913;-70
2021/04/03 03:25:46;;;;;;;;;;;;;;;2.11;79.33;99505.62;1755198;81;20521;-70
2021/04/03 03:28:14;;;;;;;;;;;;;;;2.07;79.30;99500.69;1753456;81;20888;-70
2021/04/03 03:30:43;;;;;;;;;;;;;;;2.03;79.27;99491.36;1719807;81;20501;-71
2021/04/03 03:33:13;;;;;;;;;;;;;;;2.00;79.30;99492.39;1756471;79;22500;-72
2021/04/03 03:35:40;;;;;;;;;;;;;;;1.99;79.29;99494.16;1742765;82;20288;-71
2021/04/03 03:38:08;;;;;;;;;;;;;;;1.98;79.25;99495.55;1759136;81;20402;-70
2021/04/03 03:40:36;;;;;;;;;;;;;;;1.95;79.25;99507.45;1756817;81;20314;-70
2021/04/03 03:43:09;;;;;;;;;;;;;;;1.90;79.19;99502.50;1756936;81;20517;-70
2021/04/03 03:45:36;;;;;;;;;;;;;;;1.83;79.09;99507.67;1721420;82;22136;-70
2021/04/03 03:48:03;;;;;;;;;;;;;;;1.77;79.04;99511.95;1761861;81;21265;-70
2021/04/03 03:50:32;;;;;;;;;;;;;;;1.77;79.14;99516.32;1750509;80;20226;-71
2021/04/03 03:52:59;;;;;;;;;;;;;;;1.78;79.24;99516.69;1769464;80;20582;-70
2021/04/03 03:55:28;;;;;;;;;;;;;;;1.77;79.28;99516.32;1759361;81;20218;-70
2021/04/03 03:57:57;;;;;;;;;;;;;;;1.78;79.42;99516.69;1757507;81;22964;-70
2021/04/03 04:00:25;;;;;;;;;;;;;;;1.79;79.54;99514.00;1747132;81;20262;-70
2021/04/03 04:02:54;;;;;;;;;;;;;;;1.82;79.66;99518.18;1752489;80;20223;-70
2021/04/03 04:05:22;;;;;;;;;;;;;;;1.83;79.73;99512.05;1760180;79;20478;-70
2021/04/03 04:07:52;;;;;;;;;;;;;;;1.84;79.85;99520.26;1772716;81;20403;-70
2021/04/03 04:10:22;;;;;;;;;;;;;;;1.88;79.97;99518.68;1766561;79;20611;-70
2021/04/03 04:12:49;;;;;;;;;;;;;;;1.91;80.01;99523.70;1766689;81;20427;-70
2021/04/03 04:15:18;;;;;;;;;;;;;;;1.94;80.08;99520.95;1750281;81;20222;-71
2021/04/03 04:17:48;;;;;;;;;;;;;;;1.98;80.09;99521.13;1760745;80;20389;-70
2021/04/03 04:20:15;;;;;;;;;;;;;;;2.01;80.15;99516.20;1769498;80;20220;-71
2021/04/03 04:22:44;;;;;;;;;;;;;;;2.04;80.28;99514.74;1763067;80;22841;-70
2021/04/03 04:25:13;;;;;;;;;;;;;;;2.06;80.34;99512.04;1783195;80;20378;-70
2021/04/03 04:27:42;;;;;;;;;;;;;;;2.11;80.46;99517.80;1773220;80;20214;-71
2021/04/03 04:30:09;;;;;;;;;;;;;;;2.15;80.56;99522.77;1755485;80;20258;-71
2021/04/03 04:32:40;;;;;;;;;;;;;;;2.19;80.62;99529.92;1762434;80;20222;-70
2021/04/03 04:35:10;;;;;;;;;;;;;;;2.22;80.66;99522.79;1756715;80;22344;-70
2021/04/03 04:37:38;;;;;;;;;;;;;;;2.27;80.78;99523.80;1762466;80;21284;-70
2021/04/03 04:40:08;;;;;;;;;;;;;;;2.32;80.99;99518.31;1753645;80;20226;-72
2021/04/03 04:42:38;;;;;;;;;;;;;;;2.40;81.20;99518.23;1770296;80;20521;-72
2021/04/03 04:45:07;;;;;;;;;;;;;;;2.47;81.28;99516.11;1759008;80;20215;-71
2021/04/03 04:47:35;;;;;;;;;;;;;;;2.53;81.33;99514.45;1770224;80;22107;-72
2021/04/03 04:50:07;;;;;;;;;;;;;;;2.58;81.38;99507.17;1771615;80;20817;-72
2021/04/03 04:52:35;;;;;;;;;;;;;;;2.63;81.39;99509.05;1763514;80;20451;-71
2021/04/03 04:55:03;;;;;;;;;;;;;;;2.69;81.43;99507.36;1738090;80;21284;-71
2021/04/03 04:57:30;;;;;;;;;;;;;;;2.75;81.47;99507.00;1763216;80;20229;-71
2021/04/03 05:00:01;;;;;;;;;;;;;;;2.80;81.50;99511.48;1748352;80;21938;-71
2021/04/03 05:02:30;;;;;;;;;;;;;;;2.87;81.54;99508.84;1758617;80;20457;-70
2021/04/03 05:04:57;;;;;;;;;;;;;;;2.94;81.71;99509.31;1752224;80;20238;-70
2021/04/03 05:07:25;;;;;;;;;;;;;;;3.00;81.67;99509.41;1775259;80;20476;-71
2021/04/03 05:09:52;;;;;;;;;;;;;;;3.06;81.65;99507.70;1749265;80;20215;-70
2021/04/03 05:12:19;;;;;;;;;;;;;;;3.12;81.66;99511.25;1765685;80;23146;-70
2021/04/03 05:14:47;;;;;;;;;;;;;;;3.16;81.68;99510.11;1772068;79;20224;-71
2021/04/03 05:17:14;;;;;;;;;;;;;;;3.21;81.65;99513.28;1761119;80;20287;-69
2021/04/03 05:19:41;;;;;;;;;;;;;;;3.26;81.65;99507.77;1754619;80;20479;-71
2021/04/03 05:22:09;;;;;;;;;;;;;;;3.31;81.58;99515.69;1765825;80;20215;-70
2021/04/03 05:24:37;;;;;;;;;;;;;;;3.36;81.56;99512.30;1742534;80;22466;-70
2021/04/03 05:27:06;;;;;;;;;;;;;;;3.40;81.43;99505.97;1764784;80;20374;-70
2021/04/03 05:29:33;;;;;;;;;;;;;;;3.44;81.30;99504.83;1761449;80;20275;-70
2021/04/03 05:32:01;;;;;;;;;;;;;;;3.49;81.18;99511.55;1768858;79;20908;-70
2021/04/03 05:34:29;;;;;;;;;;;;;;;3.51;80.91;99505.28;1766009;80;20217;-70
2021/04/03 05:36:59;;;;;;;;;;;;;;;3.56;80.84;99508.41;1765567;80;22074;-70
2021/04/03 05:39:26;;;;;;;;;;;;;;;3.62;80.76;99504.59;1760179;79;20673;-70
2021/04/03 05:41:53;;;;;;;;;;;;;;;3.69;80.70;99511.93;1761105;80;20220;-70
2021/04/03 05:44:21;;;;;;;;;;;;;;;3.76;80.58;99518.88;1757238;80;20970;-70
2021/04/03 05:46:49;;;;;;;;;;;;;;;3.84;80.43;99532.75;1762210;80;20211;-71
2021/04/03 05:49:19;;;;;;;;;;;;;;;3.92;80.30;99526.09;1766950;80;21202;-70
2021/04/03 05:51:47;;;;;;;;;;;;;;;4.00;80.06;99525.12;1762993;80;20457;-70
2021/04/03 05:54:14;;;;;;;;;;;;;;;4.06;79.66;99524.37;1760229;80;20245;-70
2021/04/03 05:56:42;;;;;;;;;;;;;;;4.13;79.37;99526.92;1770695;80;20317;-68
2021/04/03 05:59:10;;;;;;;;;;;;;;;4.18;78.92;99529.61;1764982;80;20449;-69
2021/04/03 06:01:38;;;;;;;;;;;;;;;4.20;78.47;99537.34;1767005;79;22094;-69
2021/04/03 06:04:07;;;;;;;;;;;;;;;4.24;78.26;99542.72;1761329;81;20347;-70
2021/04/03 06:06:38;;;;;;;;;;;;;;;4.32;78.21;99543.05;1741082;80;20227;-71
2021/04/03 06:09:07;;;;;;;;;;;;;;;4.37;77.54;99550.13;1738760;81;20526;-71
2021/04/03 06:11:46;;;;;;;;;;;;;;;4.41;77.28;99538.98;1767564;80;20240;-70
2021/04/03 06:14:14;;;;;;;;;;;;;;;4.48;76.84;99538.48;1769889;80;22028;-71
2021/04/03 06:16:45;;;;;;;;;;;;;;;4.54;76.59;99549.00;1773595;80;20219;-71
2021/04/03 06:19:19;;;;;;;;;;;;;;;4.57;76.00;99554.02;1758541;80;20801;-72
2021/04/03 06:21:54;;;;;;;;;;;;;;;4.58;75.67;99561.76;1760983;81;20468;-70
2021/04/03 06:24:25;;;;;;;;;;;;;;;4.64;75.46;99563.60;1750276;81;20232;-70
2021/04/03 06:27:01;;;;;;;;;;;;;;;4.70;75.37;99571.02;1740367;81;21905;-73
2021/04/03 06:29:32;;;;;;;;;;;;;;;4.74;74.75;99568.58;1763358;80;21286;-70
2021/04/03 06:32:00;;;;;;;;;;;;;;;4.76;74.68;99570.14;1771804;80;20216;-72
2021/04/03 06:34:32;;;;;;;;;;;;;;;4.79;74.53;99563.84;1741294;80;21332;-70
2021/04/03 06:36:59;;;;;;;;;;;;;;;4.81;73.75;99565.41;1769544;80;20222;-72
2021/04/03 06:39:27;;;;;;;;;;;;;;;4.82;73.34;99574.09;1752489;80;21891;-72
2021/04/03 06:41:55;;;;;;;;;;;;;;;4.88;73.46;99575.83;1773461;80;20259;-70
2021/04/03 06:44:23;;;;;;;;;;;;;;;4.97;73.11;99580.07;1771916;80;20207;-70
2021/04/03 06:46:53;;;;;;;;;;;;;;;5.04;72.66;99582.16;1749115;80;20538;-69
2021/04/03 06:49:22;;;;;;;;;;;;;;;5.13;72.12;99574.98;1731882;81;20502;-71
2021/04/03 06:51:51;;;;;;;;;;;;;;;5.21;71.45;99578.38;1724395;81;23062;-73
2021/04/03 06:54:18;;;;;;;;;;;;;;;5.31;70.57;99578.58;1759295;80;20493;-73
2021/04/03 06:56:46;;;;;;;;;;;;;;;5.39;69.67;99577.53;1759525;80;20298;-73
2021/04/03 06:59:13;;;;;;;;;;;;;;;5.43;68.79;99580.32;1753768;80;20777;-71
2021/04/03 07:01:57;;;;;;;;;;;;;;;5.48;68.51;99583.44;1756878;80;20269;-72
2021/04/03 07:04:29;;;;;;;;;;;;;;;5.55;67.68;99588.61;1753649;80;21899;-75
2021/04/03 07:06:57;;;;;;;;;;;;;;;5.58;66.27;99589.69;1773007;80;21278;-74
2021/04/03 07:09:25;;;;;;;;;;;;;;;5.62;65.66;99589.02;1757615;80;20719;-71
2021/04/03 07:11:54;;;;;;;;;;;;;;;5.67;65.40;99593.44;1764703;80;38201;-73
2021/04/03 07:14:23;;;;;;;;;;;;;;;5.74;65.00;99592.06;1768365;80;20282;-71
2021/04/03 07:16:50;;;;;;;;;;;;;;;5.83;65.12;99595.33;1773957;80;22074;-73
2021/04/03 07:19:20;;;;;;;;;;;;;;;5.95;64.41;99593.63;1748375;81;20297;-73
2021/04/03 07:21:47;;;;;;;;;;;;;;;6.05;63.80;99596.42;1746702;81;20745;-72
2021/04/03 07:24:16;;;;;;;;;;;;;;;6.16;63.32;99599.09;1741648;81;20322;-70
2021/04/03 07:26:48;;;;;;;;;;;;;;;6.23;62.69;99601.16;1752018;81;20280;-71
2021/04/03 07:29:39;;;;;;;;;;;;;;;6.30;61.94;99602.38;1764767;81;21904;-71
2021/04/03 07:32:27;;;;;;;;;;;;;;;6.30;60.88;99601.55;1742218;81;20279;-70
2021/04/03 07:34:55;;;;;;;;;;;;;;;6.37;60.46;99612.40;1771889;81;20284;-69
2021/04/03 07:37:33;;;;;;;;;;;;;;;6.46;60.13;99616.48;1755386;81;21383;-71
2021/04/03 07:40:02;;;;;;;;;;;;;;;6.54;59.39;99611.52;1756245;81;20226;-71
2021/04/03 07:42:36;;;;;;;;;;;;;;;6.63;58.33;99623.11;1760622;81;22065;-72
2021/04/03 07:45:05;;;;;;;;;;;;;;;6.66;58.56;99618.09;1750538;81;20399;-72
2021/04/03 07:47:46;;;;;;;;;;;;;;;6.77;59.07;99615.05;1752293;81;20492;-72
2021/04/03 07:50:33;;;;;;;;;;;;;;;6.92;58.18;99620.07;1752013;81;20552;-69
2021/04/03 07:53:01;;;;;;;;;;;;;;;7.05;57.76;99619.51;1725830;81;20243;-72
2021/04/03 07:55:35;;;;;;;;;;;;;;;7.09;55.95;99611.27;1743107;81;22097;-73
2021/04/03 07:58:21;;;;;;;;;;;;;;;7.12;55.60;99621.52;1766472;80;20264;-72
2021/04/03 08:00:49;;;;;;;;;;;;;;;7.20;56.18;99624.04;1739801;81;20255;-75
2021/04/03 08:03:23;;;;;;;;;;;;;;;7.34;56.32;99616.78;1771699;80;21290;-73
2021/04/03 08:06:00;;;;;;;;;;;;;;;7.53;56.39;99620.11;1764206;81;20271;-69
2021/04/03 08:08:33;;;;;;;;;;;;;;;7.70;55.91;99625.33;1753524;81;22068;-70
2021/04/03 08:11:17;;;;;;;;;;;;;;;7.81;55.42;99621.84;1764819;81;20565;-68
2021/04/03 08:13:47;;;;;;;;;;;;;;;7.91;54.83;99630.21;1747902;80;20519;-70
2021/04/03 08:16:15;;;;;;;;;;;;;;;7.97;53.59;99617.03;1757497;81;20311;-68
2021/04/03 08:18:46;;;;;;;;;;;;;;;7.97;53.48;99624.44;1756959;80;20858;-67
2021/04/03 08:21:15;;;;;;;;;;;;;;;8.01;52.85;99627.20;1750982;81;21899;-71
2021/04/03 08:23:46;;;;;;;;;;;;;;;8.07;53.24;99627.64;1742774;81;20374;-72
2021/04/03 08:26:13;;;;;;;;;;;;;;;8.14;52.37;99624.40;1749273;81;20275;-73
2021/04/03 08:28:40;;;;;;;;;;;;;;;8.22;52.25;99626.41;1757524;81;20493;-72
2021/04/03 08:31:20;;;;;;;;;;;;;;;8.29;51.83;99624.45;1760217;81;20222;-69
2021/04/03 08:33:49;;;;;;;;;;;;;;;8.39;52.38;99618.47;1760457;80;21948;-71
2021/04/03 08:36:18;;;;;;;;;;;;;;;8.52;51.88;99629.19;1769922;81;20530;-73
2021/04/03 08:38:45;;;;;;;;;;;;;;;8.65;51.66;99629.00;1757560;80;20281;-70
2021/04/03 08:41:16;;;;;;;;;;;;;;;8.75;50.88;99632.53;1757637;81;20477;-70
2021/04/03 08:43:45;;;;;;;;;;;;;;;8.83;50.28;99637.16;1760476;81;20269;-69
2021/04/03 08:46:15;;;;;;;;;;;;;;;8.90;50.25;99627.79;1742148;81;22908;-70
2021/04/03 08:48:49;;;;;;;;;;;;;;;9.04;50.95;99625.29;1749281;81;20233;-71
2021/04/03 08:51:17;;;;;;;;;;;;;;;9.15;48.96;99628.67;1754058;81;20235;-70
2021/04/03 08:53:48;;;;;;;;;;;;;;;9.18;49.15;99626.28;1756333;81;20560;-74
2021/04/03 08:56:19;;;;;;;;;;;;;;;9.22;46.84;99626.84;1772095;81;20210;-72
2021/04/03 08:58:46;;;;;;;;;;;;;;;9.17;46.75;99630.72;1743226;81;24162;-73
2021/04/03 09:01:13;;;;;;;;;;;;;;;9.21;46.79;99637.87;1747444;81;20460;-74
2021/04/03 09:03:43;;;;;;;;;;;;;;;9.31;47.45;99633.48;1741189;82;20265;-72
2021/04/03 09:06:10;;;;;;;;;;;;;;;9.50;47.05;99648.55;1748736;81;20274;-72
2021/04/03 09:08:37;;;;;;;;;;;;;;;9.54;45.41;99649.94;1761316;81;20223;-71
2021/04/03 09:11:05;;;;;;;;;;;;;;;9.53;46.18;99657.49;1740480;81;21900;-73
2021/04/03 09:13:36;;;;;;;;;;;;;;;9.57;44.99;99664.19;1771855;80;20288;-71
2021/04/03 09:16:11;;;;;;;;;;;;;;;9.52;45.13;99658.47;1771983;81;20283;-69
2021/04/03 09:18:39;;;;;;;;;;;;;;;9.51;43.27;99657.28;1771233;80;20617;-74
2021/04/03 09:21:07;;;;;;;;;;;;;;;9.50;42.35;99660.41;1759683;79;20716;-73
2021/04/03 09:23:41;;;;;;;;;;;;;;;9.46;42.32;99659.84;1770893;79;22047;-73
2021/04/03 09:26:08;;;;;;;;;;;;;;;9.49;42.00;99667.97;1788380;80;20377;-71
2021/04/03 09:28:38;;;;;;;;;;;;;;;9.50;41.87;99665.68;1749330;81;20474;-72
2021/04/03 09:31:08;;;;;;;;;;;;;;;9.57;42.89;99664.19;1754013;80;20498;-73
2021/04/03 09:33:49;;;;;;;;;;;;;;;9.71;42.47;99649.80;1763690;80;20227;-73
2021/04/03 09:36:17;;;;;;;;;;;;;;;9.90;43.28;99649.02;1774459;80;22063;-72
2021/04/03 09:38:45;;;;;;;;;;;;;;;10.23;41.92;99648.71;1751342;80;20383;-75
2021/04/03 09:41:25;;;;;;;;;;;;;;;10.40;40.44;99645.02;1773754;80;20286;-74
2021/04/03 09:43:53;;;;;;;;;;;;;;;10.49;40.85;99643.70;1744539;82;20339;-76
2021/04/03 09:46:21;;;;;;;;;;;;;;;10.69;40.51;99651.62;1768363;80;20288;-73
2021/04/03 09:48:50;;;;;;;;;;;;;;;10.82;39.75;99646.90;1770018;80;22986;-72
2021/04/03 09:51:17;;;;;;;;;;;;;;;10.92;40.62;99655.64;1748344;80;20720;-72
2021/04/03 09:53:47;;;;;;;;;;;;;;;11.06;39.95;99639.82;1768747;80;20298;-71
2021/04/03 09:56:16;;;;;;;;;;;;;;;11.23;39.40;99634.29;1775167;80;20310;-72
2021/04/03 09:58:43;;;;;;;;;;;;;;;11.37;38.67;99647.03;1767268;80;20256;-73
2021/04/03 10:01:11;;;;;;;;;;;;;;;11.46;39.41;99643.02;1750117;80;21989;-73
2021/04/03 10:03:40;;;;;;;;;;;;;;;11.44;38.35;99649.44;1735589;80;20303;-71
2021/04/03 10:06:07;;;;;;;;;;;;;;;11.39;38.45;99654.34;1772670;80;20263;-71
2021/04/03 10:08:34;;;;;;;;;;;;;;;11.51;39.57;99639.12;1754851;80;20309;-70
2021/04/03 10:11:03;;;;;;;;;;;;;;;11.85;38.17;99633.61;1760593;79;20233;-72
2021/04/03 10:13:32;;;;;;;;;;;;;;;12.08;37.36;99636.70;1762719;80;21361;-73
2021/04/03 10:16:01;;;;;;;;;;;;;;;12.06;35.93;99629.38;1756826;80;20402;-70
2021/04/03 10:18:30;;;;;;;;;;;;;;;11.90;36.34;99640.63;1740965;81;20277;-72
2021/04/03 10:20:58;;;;;;;;;;;;;;;11.69;36.35;99636.89;1740877;81;20297;-69
2021/04/03 10:23:25;;;;;;;;;;;;;;;11.47;36.19;99640.72;1759767;81;20282;-71
2021/04/03 10:25:53;;;;;;;;;;;;;;;11.27;35.34;99644.91;1761835;81;22871;-76
2021/04/03 10:28:20;;;;;;;;;;;;;;;11.21;36.21;99641.53;1764690;81;20300;-73
2021/04/03 10:30:48;;;;;;;;;;;;;;;11.36;38.31;99633.47;1756314;79;20238;-73
2021/04/03 10:33:16;;;;;;;;;;;;;;;11.72;36.76;99637.91;1750880;81;20601;-72
2021/04/03 10:35:43;;;;;;;;;;;;;;;11.96;34.96;99631.25;1759439;81;20267;-73
2021/04/03 10:38:11;;;;;;;;;;;;;;;12.15;34.60;99635.09;1766411;79;22035;-72
2021/04/03 10:40:39;;;;;;;;;;;;;;;12.12;32.99;99626.14;1766549;81;20385;-73
2021/04/03 10:43:08;;;;;;;;;;;;;;;11.97;34.30;99629.80;1756982;81;20271;-73
2021/04/03 10:45:35;;;;;;;;;;;;;;;12.06;36.19;99634.67;1761374;81;20310;-72
2021/04/03 10:48:04;;;;;;;;;;;;;;;12.39;35.70;99633.19;1764527;81;20278;-71
2021/04/03 10:50:31;;;;;;;;;;;;;;;12.77;35.12;99624.58;1747961;79;21888;-72
2021/04/03 10:52:59;;;;;;;;;;;;;;;13.00;34.27;99627.05;1769047;79;20385;-73
2021/04/03 10:55:27;;;;;;;;;;;;;;;13.16;34.10;99628.48;1746763;80;20275;-71
2021/04/03 10:57:54;;;;;;;;;;;;;;;13.24;33.96;99622.94;1744392;81;20297;-73
2021/04/03 11:00:23;;;;;;;;;;;;;;;13.32;33.69;99622.98;1758430;80;20223;-73
2021/04/03 11:02:50;;;;;;;;;;;;;;;13.09;33.55;99622.63;1729673;81;21364;-72
2021/04/03 11:05:19;;;;;;;;;;;;;;;12.87;33.76;99634.59;1754217;81;20378;-75
2021/04/03 11:07:46;;;;;;;;;;;;;;;12.82;34.88;99633.70;1756436;79;20301;-75
2021/04/03 11:10:14;;;;;;;;;;;;;;;12.90;33.75;99631.62;1757638;81;21489;-76
2021/04/03 11:12:41;;;;;;;;;;;;;;;12.98;34.42;99636.98;1762082;80;20542;-72
2021/04/03 11:15:11;;;;;;;;;;;;;;;13.11;32.85;99632.09;1767171;80;20430;-71
2021/04/03 11:17:38;;;;;;;;;;;;;;;13.34;31.53;99630.28;1737614;81;20486;-72
2021/04/03 11:20:09;;;;;;;;;;;;;;;13.39;30.84;99620.02;1781711;79;20228;-72
2021/04/03 11:22:37;;;;;;;;;;;;;;;13.50;32.52;99618.91;1757704;81;21158;-73
2021/04/03 11:25:06;;;;;;;;;;;;;;;13.71;30.27;99627.31;1761351;81;20271;-74
2021/04/03 11:27:33;;;;;;;;;;;;;;;13.67;30.11;99617.98;1762572;81;22064;-73
2021/04/03 11:30:13;;;;;;;;;;;;;;;13.56;30.89;99621.77;1762646;81;20279;-72
2021/04/03 11:32:29;;;;;;;;;;;;;;;13.57;31.58;99625.25;1760532;81;20275;-72
2021/04/03 11:34:56;;;;;;;;;;;;;;;13.82;31.32;99625.69;1762888;81;21347;-72
2021/04/03 11:37:23;;;;;;;;;;;;;;;14.09;31.87;99626.41;1764681;80;20260;-72
2021/04/03 11:39:51;;;;;;;;;;;;;;;14.24;30.77;99633.59;1771208;81;22980;-73
2021/04/03 11:42:18;;;;;;;;;;;;;;;14.13;29.80;99633.07;1745541;81;20677;-72
2021/04/03 11:44:45;;;;;;;;;;;;;;;13.85;30.05;99625.86;1745360;82;20262;-71
2021/04/03 11:47:12;;;;;;;;;;;;;;;13.66;31.42;99619.81;1745826;82;20476;-71
2021/04/03 11:49:40;;;;;;;;;;;;;;;13.64;30.41;99620.48;1745951;82;20225;-71
2021/04/03 11:52:07;;;;;;;;;;;;;;;13.60;31.37;99606.34;1760079;80;23064;-70
2021/04/03 11:54:35;;;;;;;;;;;;;;;13.63;30.86;99604.72;1775716;80;21432;-71
2021/04/03 11:57:04;;;;;;;;;;;;;;;13.74;31.27;99600.44;1776462;80;20220;-73
2021/04/03 11:59:31;;;;;;;;;;;;;;;14.00;32.15;99602.52;1776255;80;20565;-71
2021/04/03 12:01:58;;;;;;;;;;;;;;;14.26;30.31;99597.06;1776694;80;20318;-71
2021/04/03 12:04:25;;;;;;;;;;;;;;;14.36;29.91;99602.22;1773702;80;22611;-70
2021/04/03 12:06:53;;;;;;;;;;;;;;;14.55;30.52;99606.41;1745875;82;20355;-70
2021/04/03 12:09:20;;;;;;;;;;;;;;;14.85;30.85;99603.57;1746096;80;20230;-71
2021/04/03 12:11:47;;;;;;;;;;;;;;;15.28;31.20;99598.34;1746719;80;20466;-70
2021/04/03 12:14:14;;;;;;;;;;;;;;;15.66;27.92;99596.73;1746942;80;20214;-72
2021/04/03 12:16:42;;;;;;;;;;;;;;;15.64;30.19;99600.59;1719167;82;22123;-71
2021/04/03 12:19:10;;;;;;;;;;;;;;;15.93;28.99;99595.95;1750221;80;20790;-71
2021/04/03 12:21:37;;;;;;;;;;;;;;;16.17;28.12;99594.45;1753930;81;20229;-71
2021/04/03 12:24:05;;;;;;;;;;;;;;;16.10;25.91;99597.98;1753912;81;20554;-71
2021/04/03 12:26:32;;;;;;;;;;;;;;;15.80;27.12;99597.83;1753974;82;20249;-71
2021/04/03 12:29:00;;;;;;;;;;;;;;;15.86;28.16;99601.13;1753562;82;23105;-72
2021/04/03 12:31:28;;;;;;;;;;;;;;;16.02;27.53;99609.05;1754885;80;20329;-71
2021/04/03 12:33:55;;;;;;;;;;;;;;;16.03;28.43;99612.53;1754871;80;20245;-71
2021/04/03 12:36:22;;;;;;;;;;;;;;;15.99;28.38;99616.53;1753949;81;21271;-71
2021/04/03 12:38:50;;;;;;;;;;;;;;;15.82;28.48;99617.62;1753953;81;20240;-71
2021/04/03 12:41:17;;;;;;;;;;;;;;;15.70;28.83;99622.00;1754179;80;22063;-74
2021/04/03 12:43:45;;;;;;;;;;;;;;;15.60;28.70;99627.17;1753879;81;21344;-71
2021/04/03 12:46:12;;;;;;;;;;;;;;;15.24;27.83;99616.96;1754070;80;20225;-71
2021/04/03 12:48:39;;;;;;;;;;;;;;;14.88;27.61;99629.34;1754829;80;20306;-71
2021/04/03 12:51:07;;;;;;;;;;;;;;;14.41;28.10;99625.66;1755624;80;20503;-71
2021/04/03 12:53:35;;;;;;;;;;;;;;;14.09;29.68;99624.61;1784036;80;21956;-71
2021/04/03 12:56:02;;;;;;;;;;;;;;;13.94;29.94;99631.53;1784802;80;20239;-71
2021/04/03 12:58:30;;;;;;;;;;;;;;;13.79;29.75;99625.16;1784891;80;20210;-71
2021/04/03 13:00:58;;;;;;;;;;;;;;;13.65;30.41;99622.13;1784961;80;20492;-71
2021/04/03 13:03:25;;;;;;;;;;;;;;;13.61;31.12;99622.13;1784906;80;20230;-71
2021/04/03 13:05:52;;;;;;;;;;;;;;;13.58;31.17;99622.42;1774542;80;22020;-71
2021/04/03 13:08:19;;;;;;;;;;;;;;;13.55;31.62;99636.02;1754411;80;20373;-71